createdAt,value
2022-08-17T00:00:00.235Z,61
2022-08-17T00:05:00.229Z,61
2022-08-17T00:10:00.211Z,62
2022-08-17T00:15:00.211Z,62
2022-08-17T00:20:00.294Z,62
2022-08-17T00:25:00.184Z,62
2022-08-17T00:30:00.265Z,62
2022-08-17T00:35:00.209Z,62
2022-08-17T00:40:00.360Z,63
2022-08-17T00:45:00.231Z,63
2022-08-17T00:50:00.273Z,63
2022-08-17T00:55:00.211Z,63
2022-08-17T01:00:02.929Z,63
2022-08-17T01:05:00.242Z,63
2022-08-17T01:10:00.311Z,63
2022-08-17T01:15:00.259Z,63
2022-08-17T01:20:00.281Z,63
2022-08-17T01:25:00.151Z,63
2022-08-17T01:30:00.317Z,63
2022-08-17T01:35:00.202Z,63
2022-08-17T01:40:00.417Z,63
2022-08-17T01:45:00.156Z,64
2022-08-17T01:50:00.312Z,64
2022-08-17T01:55:00.249Z,64
2022-08-17T02:00:00.231Z,64
2022-08-17T02:05:00.214Z,64
2022-08-17T02:10:00.256Z,64
2022-08-17T02:15:00.124Z,64
2022-08-17T02:20:00.236Z,64
2022-08-17T02:25:02.415Z,64
2022-08-17T02:30:00.329Z,65
2022-08-17T02:35:00.132Z,65
2022-08-17T02:40:00.466Z,65
2022-08-17T02:45:00.268Z,65
2022-08-17T02:50:00.260Z,65
2022-08-17T02:55:00.132Z,65
2022-08-17T03:00:00.296Z,65
2022-08-17T03:05:00.229Z,66
2022-08-17T03:10:00.305Z,66
2022-08-17T03:15:00.221Z,66
2022-08-17T03:20:00.310Z,66
2022-08-17T03:25:00.279Z,66
2022-08-17T03:30:00.311Z,66
2022-08-17T03:35:00.266Z,66
2022-08-17T03:40:00.400Z,66
2022-08-17T03:45:00.244Z,66
2022-08-17T03:50:00.219Z,67
2022-08-17T03:55:00.265Z,67
2022-08-17T04:00:00.291Z,67
2022-08-17T04:05:00.245Z,67
2022-08-17T04:10:00.299Z,67
2022-08-17T04:15:00.221Z,67
2022-08-17T04:20:00.319Z,68
2022-08-17T04:25:00.302Z,68
2022-08-17T04:30:00.334Z,68
2022-08-17T04:35:00.332Z,68
2022-08-17T04:40:03.963Z,68
2022-08-17T04:45:00.248Z,68
2022-08-17T04:50:00.291Z,68
2022-08-17T04:55:00.294Z,68
2022-08-17T05:00:00.312Z,68
2022-08-17T05:05:00.288Z,68
2022-08-17T05:10:00.401Z,68
2022-08-17T05:15:00.274Z,68
2022-08-17T05:20:00.286Z,68
2022-08-17T05:25:02.663Z,68
2022-08-17T05:30:00.314Z,68
2022-08-17T05:35:00.553Z,68
2022-08-17T05:40:00.392Z,68
2022-08-17T05:45:00.240Z,68
2022-08-17T05:50:00.268Z,68
2022-08-17T05:55:00.219Z,68
2022-08-17T06:00:06.774Z,68
2022-08-17T06:05:00.288Z,68
2022-08-17T06:10:00.229Z,68
2022-08-17T06:15:00.192Z,69
2022-08-17T06:20:00.216Z,69
2022-08-17T06:25:00.267Z,69
2022-08-17T06:30:00.260Z,69
2022-08-17T06:35:01.425Z,69
2022-08-17T06:40:00.421Z,69
2022-08-17T06:45:00.252Z,69
2022-08-17T06:50:00.267Z,69
2022-08-17T06:55:00.263Z,69
2022-08-17T07:00:00.268Z,69
2022-08-17T07:05:00.313Z,69
2022-08-17T07:10:00.271Z,69
2022-08-17T07:15:00.292Z,69
2022-08-17T07:20:00.306Z,69
2022-08-17T07:25:00.293Z,69
2022-08-17T07:30:00.273Z,69
2022-08-17T07:35:00.310Z,69
2022-08-17T07:40:16.040Z,69
2022-08-17T07:45:00.320Z,69
2022-08-17T07:50:00.349Z,69
2022-08-17T07:55:00.258Z,68
2022-08-17T08:00:01.124Z,68
2022-08-17T08:05:01.640Z,68
2022-08-17T08:10:00.229Z,68
2022-08-17T08:15:00.620Z,68
2022-08-17T08:20:00.233Z,67
2022-08-17T08:25:00.261Z,67
2022-08-17T08:30:00.290Z,67
2022-08-17T08:35:02.910Z,67
2022-08-17T08:40:00.350Z,66
2022-08-17T08:45:04.202Z,65
2022-08-17T08:50:05.214Z,64
2022-08-17T08:55:00.289Z,64
2022-08-17T09:00:00.335Z,64
2022-08-17T09:05:14.646Z,64
2022-08-17T09:10:00.287Z,63
2022-08-17T09:15:00.298Z,62
2022-08-17T09:20:00.320Z,62
2022-08-17T09:25:00.278Z,61
2022-08-17T09:30:00.319Z,61
2022-08-17T09:35:00.326Z,61
2022-08-17T09:40:00.465Z,61
2022-08-17T09:45:00.236Z,59
2022-08-17T09:50:00.300Z,59
2022-08-17T09:55:00.389Z,59
2022-08-17T10:00:00.356Z,59
2022-08-17T10:05:00.286Z,59
2022-08-17T10:10:00.300Z,59
2022-08-17T10:15:07.755Z,59
2022-08-17T10:20:00.248Z,59
2022-08-17T10:25:21.011Z,58
2022-08-17T10:30:00.328Z,58
2022-08-17T10:35:00.286Z,58
2022-08-17T10:40:00.475Z,58
2022-08-17T10:45:00.340Z,57
2022-08-17T10:50:00.314Z,57
2022-08-17T10:55:00.335Z,57
2022-08-17T11:00:00.381Z,58
2022-08-17T11:05:00.278Z,57
2022-08-17T11:10:00.273Z,57
2022-08-17T11:15:00.308Z,57
2022-08-17T11:20:00.260Z,57
2022-08-17T11:25:00.235Z,57
2022-08-17T11:30:01.768Z,57
2022-08-17T11:35:00.196Z,57
2022-08-17T11:40:00.407Z,57
2022-08-17T11:45:00.217Z,57
2022-08-17T11:50:00.237Z,57
2022-08-17T11:55:12.408Z,57
2022-08-17T12:00:00.326Z,58
2022-08-17T12:05:00.179Z,58
2022-08-17T12:10:00.236Z,58
2022-08-17T12:15:11.510Z,58
2022-08-17T12:20:00.248Z,59
2022-08-17T12:25:00.245Z,59
2022-08-17T12:30:00.283Z,59
2022-08-17T12:35:00.206Z,59
2022-08-17T12:40:00.390Z,59
2022-08-17T12:45:00.174Z,59
2022-08-17T12:50:00.290Z,59
2022-08-17T12:55:00.270Z,59
2022-08-17T13:00:00.262Z,59
2022-08-17T13:05:00.280Z,59
2022-08-17T13:10:00.295Z,59
2022-08-17T13:15:00.277Z,59
2022-08-17T13:20:00.333Z,59
2022-08-17T13:25:00.233Z,59
2022-08-17T13:30:00.294Z,59
2022-08-17T13:35:15.557Z,59
2022-08-17T13:40:00.482Z,59
2022-08-17T13:45:00.240Z,59
2022-08-17T13:50:00.312Z,59
2022-08-17T13:55:00.269Z,59
2022-08-17T14:00:00.321Z,59
2022-08-17T14:05:00.291Z,59
2022-08-17T14:10:00.273Z,58
2022-08-17T14:15:00.259Z,59
2022-08-17T14:20:00.280Z,58
2022-08-17T14:25:00.266Z,58
2022-08-17T14:30:00.437Z,57
2022-08-17T14:35:00.285Z,57
2022-08-17T14:40:00.441Z,57
2022-08-17T14:45:00.308Z,57
2022-08-17T14:50:00.241Z,57
2022-08-17T14:55:00.256Z,57
2022-08-17T15:00:00.297Z,57
2022-08-17T15:05:00.298Z,58
2022-08-17T15:10:00.743Z,58
2022-08-17T15:15:00.301Z,58
2022-08-17T15:20:00.293Z,58
2022-08-17T15:25:00.264Z,59
2022-08-17T15:30:00.309Z,59
2022-08-17T15:35:00.318Z,59
2022-08-17T15:40:00.490Z,59
2022-08-17T15:45:00.290Z,59
2022-08-17T15:50:00.597Z,58
2022-08-17T15:55:00.199Z,59
2022-08-17T16:00:00.434Z,59
2022-08-17T16:05:00.394Z,59
2022-08-17T16:10:00.335Z,59
2022-08-17T16:15:00.255Z,59
2022-08-17T16:20:00.280Z,59
2022-08-17T16:25:00.303Z,59
2022-08-17T16:30:00.312Z,59
2022-08-17T16:35:00.315Z,59
2022-08-17T16:40:00.483Z,59
2022-08-17T16:45:00.342Z,59
2022-08-17T16:50:00.306Z,59
2022-08-17T16:55:00.298Z,59
2022-08-17T17:00:00.261Z,59
2022-08-17T17:05:00.208Z,59
2022-08-17T17:10:00.294Z,59
2022-08-17T17:15:00.227Z,60
2022-08-17T17:20:00.270Z,60
2022-08-17T17:25:00.206Z,60
2022-08-17T17:30:00.270Z,60
2022-08-17T17:35:00.291Z,61
2022-08-17T17:40:00.347Z,61
2022-08-17T17:45:00.233Z,61
2022-08-17T17:50:00.267Z,62
2022-08-17T17:55:00.259Z,62
2022-08-17T18:00:00.293Z,62
2022-08-17T18:05:00.188Z,62
2022-08-17T18:10:01.490Z,62
2022-08-17T18:15:00.233Z,62
2022-08-17T18:20:00.542Z,62
2022-08-17T18:25:00.231Z,63
2022-08-17T18:30:00.313Z,63
2022-08-17T18:35:00.281Z,63
2022-08-17T18:40:00.385Z,63
2022-08-17T18:45:00.194Z,63
2022-08-17T18:50:00.269Z,63
2022-08-17T18:55:00.266Z,64
2022-08-17T19:00:00.306Z,64
2022-08-17T19:05:00.270Z,64
2022-08-17T19:10:00.338Z,64
2022-08-17T19:15:00.321Z,64
2022-08-17T19:20:00.333Z,64
2022-08-17T19:25:02.958Z,64
2022-08-17T19:30:04.014Z,64
2022-08-17T19:35:00.245Z,64
2022-08-17T19:40:00.371Z,64
2022-08-17T19:45:00.293Z,65
2022-08-17T19:50:00.309Z,65
2022-08-17T19:55:00.274Z,65
2022-08-17T20:00:00.276Z,65
2022-08-17T20:05:00.273Z,65
2022-08-17T20:10:00.278Z,66
2022-08-17T20:15:00.253Z,66
2022-08-17T20:20:00.244Z,66
2022-08-17T20:25:00.233Z,66
2022-08-17T20:30:00.292Z,66
2022-08-17T20:35:00.281Z,66
2022-08-17T20:40:00.526Z,66
2022-08-17T20:45:00.180Z,66
2022-08-17T20:50:00.261Z,67
2022-08-17T20:55:00.302Z,67
2022-08-17T21:00:00.292Z,67
2022-08-17T21:05:00.237Z,67
2022-08-17T21:10:00.309Z,67
2022-08-17T21:15:00.178Z,68
2022-08-17T21:20:11.782Z,68
2022-08-17T21:25:00.149Z,68
2022-08-17T21:30:00.322Z,68
2022-08-17T21:35:00.148Z,68
2022-08-17T21:40:00.415Z,68
2022-08-17T21:45:00.181Z,68
2022-08-17T21:50:00.214Z,68
2022-08-17T21:55:00.268Z,69
2022-08-17T22:00:00.306Z,69
2022-08-17T22:05:00.230Z,69
2022-08-17T22:10:00.221Z,69
2022-08-17T22:15:00.164Z,69
2022-08-17T22:20:00.299Z,70
2022-08-17T22:25:00.158Z,70
2022-08-17T22:30:00.312Z,70
2022-08-17T22:35:00.175Z,70
2022-08-17T22:40:00.397Z,70
2022-08-17T22:45:00.233Z,70
2022-08-17T22:50:00.268Z,70
2022-08-17T22:55:00.159Z,70
2022-08-17T23:00:00.247Z,70
2022-08-17T23:05:00.140Z,70
2022-08-17T23:10:00.268Z,70
2022-08-17T23:15:00.145Z,71
2022-08-17T23:20:00.217Z,71
2022-08-17T23:25:00.138Z,71
2022-08-17T23:30:00.232Z,71
2022-08-17T23:35:00.136Z,71
2022-08-17T23:40:00.458Z,71
2022-08-17T23:45:00.250Z,72
2022-08-17T23:50:01.624Z,72
2022-08-17T23:55:00.207Z,72
